Conroe's Hourly Summary for Thursday, July 5, 2018
Hour Temp
(f)
RH
(%)
Solar Rad.
(MJ/m2)
Rainfall
(in)
Wind
(mph)
7/5/2018 12:00 AM 70 92 0 0.03 0.22
7/5/2018 1:00 AM 70 92 0 0.03 1.06
7/5/2018 2:00 AM 69 92 0 0.03 0.05
7/5/2018 3:00 AM 69 92 0 0.03 0
7/5/2018 4:00 AM 68 93 0 0.03 0
7/5/2018 5:00 AM 68 93 0 0.03 0.01
7/5/2018 6:00 AM 68 92 0.03 0.03 0
7/5/2018 7:00 AM 71 81 0.41 0.03 0
7/5/2018 8:00 AM 76 74 1.06 0.05 0.53
7/5/2018 9:00 AM 80 60 1.75 0.05 0.77
7/5/2018 10:00 AM 83 56 2.13 0.04 1.69
7/5/2018 11:00 AM 84 53 2.45 0.02 2.23
7/5/2018 12:00 PM 85 53 1.96 0.01 1.85
7/5/2018 1:00 PM 87 48 3.11 0 2.27
7/5/2018 2:00 PM 89 44 2.89 0 2.39
7/5/2018 3:00 PM 90 39 2.6 0 1.87
7/5/2018 4:00 PM 91 38 2.18 0 1.55
7/5/2018 5:00 PM 91 38 1.31 0 0.86
7/5/2018 6:00 PM 90 40 0.97 0 0.76
7/5/2018 7:00 PM 86 47 0.1 0 1.36
7/5/2018 8:00 PM 74 76 0 0.02 3.59
7/5/2018 9:00 PM 74 89 0 0.01 1.92
7/5/2018 10:00 PM 73 90 0 0.01 0.94
7/5/2018 11:00 PM 73 90 0 0.01 0.47
Data Summary 78 69 22.95 0.46 1.10